createdAt,value
2023-04-23T00:00:37.171Z,0.95
2023-04-23T00:03:10.053Z,1.30
2023-04-23T00:05:37.808Z,1.92
2023-04-23T00:08:04.660Z,1.33
2023-04-23T00:10:31.421Z,1.20
2023-04-23T00:12:59.389Z,0.98
2023-04-23T00:15:26.407Z,0.57
2023-04-23T00:17:52.992Z,0.85
2023-04-23T00:20:20.053Z,2.45
2023-04-23T00:22:46.505Z,0.88
2023-04-23T00:25:12.996Z,0.60
2023-04-23T00:27:39.478Z,3.05
2023-04-23T00:30:06.963Z,2.25
2023-04-23T00:32:33.490Z,1.55
2023-04-23T00:35:00.087Z,0.60
2023-04-23T00:37:26.594Z,1.02
2023-04-23T00:39:53.105Z,1.35
2023-04-23T00:42:20.224Z,0.90
2023-04-23T00:44:46.840Z,1.35
2023-04-23T00:47:15.113Z,0.80
2023-04-23T00:49:42.872Z,1.73
2023-04-23T00:52:09.534Z,1.90
2023-04-23T00:54:36.049Z,1.20
2023-04-23T00:57:03.670Z,1.55
2023-04-23T00:59:31.705Z,0.70
2023-04-23T01:01:58.698Z,1.30
2023-04-23T01:04:28.056Z,1.63
2023-04-23T01:06:55.869Z,0.90
2023-04-23T01:09:23.265Z,3.70
2023-04-23T01:11:51.496Z,2.03
2023-04-23T01:14:17.984Z,1.67
2023-04-23T01:16:44.636Z,4.53
2023-04-23T01:19:11.567Z,2.67
2023-04-23T01:21:42.429Z,1.98
2023-04-23T01:24:10.584Z,2.90
2023-04-23T01:26:37.358Z,2.15
2023-04-23T01:29:04.044Z,4.50
2023-04-23T01:31:31.290Z,4.05
2023-04-23T01:33:59.512Z,3.03
2023-04-23T01:36:27.108Z,3.08
2023-04-23T01:38:53.697Z,2.47
2023-04-23T01:41:20.326Z,3.08
2023-04-23T01:43:46.828Z,2.13
2023-04-23T01:46:13.391Z,2.42
2023-04-23T01:48:40.443Z,3.13
2023-04-23T01:51:07.146Z,4.22
2023-04-23T01:53:33.579Z,2.22
2023-04-23T01:56:01.389Z,2.78
2023-04-23T01:58:27.880Z,2.45
2023-04-23T02:00:54.422Z,2.55
2023-04-23T02:03:21.100Z,3.85
2023-04-23T02:05:49.065Z,2.63
2023-04-23T02:08:16.355Z,3.00
2023-04-23T02:10:42.829Z,1.90
2023-04-23T02:13:09.326Z,3.88
2023-04-23T02:15:38.197Z,5.35
2023-04-23T02:18:05.063Z,3.45
2023-04-23T02:20:31.700Z,5.70
2023-04-23T02:22:58.281Z,4.70
2023-04-23T02:25:24.759Z,5.82
2023-04-23T02:27:51.256Z,5.85
2023-04-23T02:30:17.847Z,7.30
2023-04-23T02:32:44.453Z,6.40
2023-04-23T02:35:11.054Z,5.60
2023-04-23T02:37:37.779Z,6.75
2023-04-23T02:40:08.129Z,6.38
2023-04-23T02:42:34.633Z,7.50
2023-04-23T02:45:01.136Z,5.82
2023-04-23T02:47:27.665Z,6.90
2023-04-23T02:49:54.227Z,5.97
2023-04-23T02:52:20.751Z,8.70
2023-04-23T02:54:47.308Z,7.47
2023-04-23T02:57:15.591Z,8.82
2023-04-23T02:59:43.131Z,7.90
2023-04-23T03:02:09.872Z,6.57
2023-04-23T03:04:36.453Z,8.63
2023-04-23T03:07:02.983Z,6.90
2023-04-23T03:09:29.443Z,8.55
2023-04-23T03:11:57.689Z,7.97
2023-04-23T03:14:24.264Z,8.35
2023-04-23T03:16:50.940Z,9.50
2023-04-23T03:19:17.504Z,8.48
2023-04-23T03:21:43.968Z,7.90
2023-04-23T03:24:13.525Z,7.07
2023-04-23T03:26:39.992Z,6.72
2023-04-23T03:29:06.864Z,9.75
2023-04-23T03:31:33.554Z,8.80
2023-04-23T03:34:00.073Z,7.57
2023-04-23T03:36:26.600Z,8.55
2023-04-23T03:38:53.093Z,6.35
2023-04-23T03:41:19.588Z,7.03
2023-04-23T03:43:46.184Z,9.15
2023-04-23T03:46:12.677Z,7.55
2023-04-23T03:48:39.128Z,5.15
2023-04-23T03:51:05.740Z,8.32
2023-04-23T03:53:32.277Z,8.70
2023-04-23T03:55:58.703Z,6.38
2023-04-23T03:58:25.205Z,6.30
2023-04-23T04:00:51.771Z,7.05
2023-04-23T04:03:18.569Z,5.63
2023-04-23T04:05:45.465Z,6.57
2023-04-23T04:08:12.070Z,7.35
2023-04-23T04:10:38.577Z,7.45
2023-04-23T04:13:05.140Z,9.70
2023-04-23T04:15:32.985Z,8.05
2023-04-23T04:18:01.185Z,8.63
2023-04-23T04:20:30.695Z,6.82
2023-04-23T04:22:57.153Z,7.05
2023-04-23T04:25:24.217Z,7.38
2023-04-23T04:27:51.014Z,6.40
2023-04-23T04:30:17.542Z,7.90
2023-04-23T04:32:45.636Z,7.97
2023-04-23T04:35:15.470Z,7.85
2023-04-23T04:37:43.834Z,9.70
2023-04-23T04:40:11.601Z,8.30
2023-04-23T04:42:39.544Z,8.27
2023-04-23T04:45:08.675Z,8.88
2023-04-23T04:47:35.260Z,8.73
2023-04-23T04:50:02.217Z,8.57
2023-04-23T04:52:28.739Z,9.05
2023-04-23T04:54:55.338Z,9.30
2023-04-23T04:57:22.957Z,6.10
2023-04-23T04:59:50.321Z,6.50
2023-04-23T05:02:17.061Z,8.00
2023-04-23T05:04:43.763Z,8.45
2023-04-23T05:07:11.465Z,7.25
2023-04-23T05:09:37.944Z,6.05
2023-04-23T05:12:07.423Z,7.35
2023-04-23T05:14:34.063Z,10.10
2023-04-23T05:17:00.825Z,8.65
2023-04-23T05:19:27.535Z,7.10
2023-04-23T05:21:54.347Z,8.40
2023-04-23T05:24:20.806Z,7.70
2023-04-23T05:26:47.425Z,8.68
2023-04-23T05:29:17.890Z,7.85
2023-04-23T05:31:44.502Z,7.00
2023-04-23T05:34:11.036Z,10.40
2023-04-23T05:36:37.587Z,8.25
2023-04-23T05:39:04.051Z,8.05
2023-04-23T05:41:30.660Z,9.95
2023-04-23T05:43:57.154Z,6.88
2023-04-23T05:46:23.753Z,6.45
2023-04-23T05:48:50.307Z,6.72
2023-04-23T05:51:17.194Z,7.03
2023-04-23T05:53:43.704Z,7.40
2023-04-23T05:56:10.341Z,6.70
2023-04-23T05:58:38.742Z,9.00
2023-04-23T06:01:05.442Z,6.82
2023-04-23T06:03:32.076Z,7.00
2023-04-23T06:05:58.800Z,5.93
2023-04-23T06:08:25.455Z,7.43
2023-04-23T06:10:51.949Z,9.05
2023-04-23T06:13:18.440Z,7.53
2023-04-23T06:15:44.930Z,8.55
2023-04-23T06:18:11.563Z,7.65
2023-04-23T06:20:38.069Z,7.15
2023-04-23T06:23:04.625Z,7.57
2023-04-23T06:25:31.135Z,7.85
2023-04-23T06:27:58.233Z,6.68
2023-04-23T06:30:24.854Z,9.40
2023-04-23T06:32:51.434Z,7.38
2023-04-23T06:35:17.999Z,6.45
2023-04-23T06:37:44.448Z,7.15
2023-04-23T06:40:11.451Z,7.22
2023-04-23T06:42:37.913Z,7.72
2023-04-23T06:45:06.264Z,6.20
2023-04-23T06:47:33.149Z,7.07
2023-04-23T06:50:02.502Z,7.53
2023-04-23T06:52:29.088Z,5.40
2023-04-23T06:54:55.589Z,4.78
2023-04-23T06:57:22.167Z,6.15
2023-04-23T06:59:48.713Z,3.95
2023-04-23T07:02:15.195Z,5.60
2023-04-23T07:04:42.193Z,5.00
2023-04-23T07:07:08.856Z,3.72
2023-04-23T07:09:35.453Z,4.82
2023-04-23T07:12:02.312Z,5.07
2023-04-23T07:14:28.798Z,4.55
2023-04-23T07:16:55.513Z,3.70
2023-04-23T07:19:22.061Z,3.63
2023-04-23T07:21:48.534Z,3.85
2023-04-23T07:24:15.039Z,4.90
2023-04-23T07:26:41.567Z,7.07
2023-04-23T07:29:10.497Z,6.05
2023-04-23T07:31:37.712Z,5.22
2023-04-23T07:34:04.232Z,2.88
2023-04-23T07:36:32.777Z,4.65
2023-04-23T07:38:59.269Z,4.32
2023-04-23T07:41:25.740Z,3.78
2023-04-23T07:43:52.347Z,4.32
2023-04-23T07:46:20.097Z,3.80
2023-04-23T07:48:46.669Z,4.68
2023-04-23T07:51:13.188Z,4.38
2023-04-23T07:53:39.706Z,2.15
2023-04-23T07:56:06.429Z,4.82
2023-04-23T07:58:33.290Z,3.83
2023-04-23T08:00:59.805Z,1.98
2023-04-23T08:03:28.213Z,2.47
2023-04-23T08:05:54.848Z,4.18
2023-04-23T08:08:21.425Z,1.65
2023-04-23T08:10:48.484Z,1.75
2023-04-23T08:13:15.046Z,1.70
2023-04-23T08:15:41.660Z,1.23
2023-04-23T08:18:08.172Z,2.97
2023-04-23T08:20:35.043Z,1.40
2023-04-23T08:23:01.718Z,0.88
2023-04-23T08:25:28.253Z,1.55
2023-04-23T08:27:54.810Z,2.15
2023-04-23T08:30:21.516Z,1.38
2023-04-23T08:32:51.110Z,1.50
2023-04-23T08:35:17.965Z,1.60
2023-04-23T08:37:44.532Z,1.35
2023-04-23T08:40:11.477Z,1.13
2023-04-23T08:42:44.100Z,2.15
2023-04-23T08:45:11.904Z,3.45
2023-04-23T08:47:43.875Z,1.98
2023-04-23T08:50:18.132Z,1.30
2023-04-23T08:52:54.379Z,1.65
2023-04-23T08:55:22.047Z,1.60
2023-04-23T08:57:49.780Z,3.50
2023-04-23T09:00:18.995Z,1.20
2023-04-23T09:02:47.678Z,1.63
2023-04-23T09:05:15.307Z,1.55
2023-04-23T09:07:42.703Z,0.93
2023-04-23T09:10:11.715Z,2.47
2023-04-23T09:12:41.394Z,1.58
2023-04-23T09:15:11.050Z,1.88
2023-04-23T09:17:45.026Z,1.42
2023-04-23T09:20:13.211Z,1.50
2023-04-23T09:22:47.772Z,1.90
2023-04-23T09:25:20.954Z,1.30
2023-04-23T09:30:15.129Z,2.47
2023-04-23T09:32:43.290Z,1.45
2023-04-23T09:35:12.212Z,2.28
2023-04-23T09:37:42.361Z,1.17
2023-04-23T09:40:09.627Z,2.13
2023-04-23T09:42:37.079Z,1.10
2023-04-23T09:45:08.386Z,1.73
2023-04-23T09:47:38.842Z,3.58
2023-04-23T09:50:06.260Z,1.80
2023-04-23T09:52:34.012Z,3.05
2023-04-23T09:55:05.310Z,1.98
2023-04-23T09:57:38.964Z,6.03
2023-04-23T10:00:22.921Z,2.10
2023-04-23T10:02:51.128Z,3.17
2023-04-23T10:05:24.907Z,2.97
2023-04-23T10:07:59.929Z,1.38
2023-04-23T10:10:26.727Z,2.05
2023-04-23T10:12:55.803Z,2.58
2023-04-23T10:15:25.272Z,2.58
2023-04-23T10:17:52.515Z,3.28
2023-04-23T10:20:21.042Z,3.33
2023-04-23T10:22:48.448Z,1.60
2023-04-23T10:25:15.317Z,2.70
2023-04-23T10:27:53.208Z,2.88
2023-04-23T10:30:21.192Z,2.30
2023-04-23T10:32:49.828Z,3.58
2023-04-23T10:35:16.639Z,3.13
2023-04-23T10:37:46.535Z,2.63
2023-04-23T10:40:15.096Z,2.90
2023-04-23T10:42:44.145Z,2.92
2023-04-23T10:45:23.530Z,3.97
2023-04-23T10:47:55.108Z,5.20
2023-04-23T10:50:35.917Z,2.83
2023-04-23T10:53:03.178Z,1.85
2023-04-23T10:55:31.441Z,14.18
2023-04-23T10:58:05.871Z,4.03
2023-04-23T11:00:41.215Z,2.63
2023-04-23T11:03:37.308Z,15.18
2023-04-23T11:06:06.325Z,4.43
2023-04-23T11:08:35.647Z,3.30
2023-04-23T11:11:07.851Z,3.90
2023-04-23T11:13:34.775Z,2.15
2023-04-23T11:16:18.632Z,1.77
2023-04-23T11:19:06.409Z,3.58
2023-04-23T11:21:58.521Z,3.25
2023-04-23T11:24:27.407Z,3.60
2023-04-23T11:26:57.208Z,3.38
2023-04-23T11:29:26.445Z,2.22
2023-04-23T11:32:02.262Z,2.65
2023-04-23T11:34:29.381Z,5.50
2023-04-23T11:36:59.404Z,3.35
2023-04-23T11:39:27.022Z,4.22
2023-04-23T11:41:54.008Z,2.35
2023-04-23T11:44:21.439Z,1.85
2023-04-23T11:46:49.621Z,3.92
2023-04-23T11:49:17.456Z,3.80
2023-04-23T11:51:45.638Z,3.10
2023-04-23T11:54:13.801Z,1.92
2023-04-23T11:56:41.260Z,4.80
2023-04-23T11:59:08.345Z,1.83
2023-04-23T12:01:48.263Z,1.95
2023-04-23T12:04:19.546Z,3.50
2023-04-23T12:06:47.829Z,3.85
2023-04-23T12:09:16.019Z,5.15
2023-04-23T12:11:43.885Z,1.38
2023-04-23T12:14:12.392Z,3.45
2023-04-23T12:16:43.503Z,2.35
2023-04-23T12:19:13.398Z,2.00
2023-04-23T12:22:03.082Z,3.33
2023-04-23T12:24:30.548Z,3.15
2023-04-23T12:27:00.685Z,5.80
2023-04-23T12:29:30.091Z,5.88
2023-04-23T12:31:59.181Z,4.53
2023-04-23T12:34:25.809Z,2.75
2023-04-23T12:36:55.145Z,3.42
2023-04-23T12:39:31.991Z,3.40
2023-04-23T12:42:05.186Z,3.92
2023-04-23T12:44:34.513Z,2.58
2023-04-23T12:47:08.408Z,3.40
2023-04-23T12:49:36.254Z,3.80
2023-04-23T12:52:04.401Z,2.38
2023-04-23T12:54:33.215Z,3.08
2023-04-23T12:57:02.986Z,4.15
2023-04-23T12:59:30.886Z,1.23
2023-04-23T13:02:01.906Z,3.15
2023-04-23T13:04:29.982Z,3.25
2023-04-23T13:06:57.008Z,3.20
2023-04-23T13:09:39.953Z,0.95
2023-04-23T13:14:32.926Z,1.35
2023-04-23T13:16:59.461Z,2.53
2023-04-23T13:19:26.313Z,2.65
2023-04-23T13:21:53.553Z,6.65
2023-04-23T13:24:20.135Z,1.75
2023-04-23T13:26:46.605Z,1.63
2023-04-23T13:29:13.207Z,1.55
2023-04-23T13:31:39.846Z,1.75
2023-04-23T13:34:06.384Z,2.45
2023-04-23T13:36:32.926Z,3.05
2023-04-23T13:38:59.478Z,1.67
2023-04-23T13:41:26.016Z,1.50
2023-04-23T13:43:52.777Z,1.35
2023-04-23T13:46:19.762Z,1.92
2023-04-23T13:48:46.420Z,1.67
2023-04-23T13:51:32.646Z,2.78
2023-04-23T13:53:59.422Z,0.95
2023-04-23T13:56:30.396Z,2.20
2023-04-23T13:59:18.056Z,1.95
2023-04-23T14:01:47.230Z,1.63
2023-04-23T14:04:13.918Z,2.00
2023-04-23T14:06:40.637Z,2.72
2023-04-23T14:09:07.129Z,1.48
2023-04-23T14:11:33.887Z,1.83
2023-04-23T14:14:01.209Z,4.13
2023-04-23T14:16:27.861Z,1.65
2023-04-23T14:18:54.455Z,1.38
2023-04-23T14:21:22.461Z,2.17
2023-04-23T14:24:00.871Z,2.35
2023-04-23T14:29:30.884Z,3.33
2023-04-23T14:31:57.389Z,2.65
2023-04-23T14:34:23.972Z,3.13
2023-04-23T14:36:53.095Z,2.95
2023-04-23T14:39:22.232Z,3.10
2023-04-23T14:41:49.032Z,3.25
2023-04-23T14:44:15.623Z,4.00
2023-04-23T14:46:42.118Z,1.02
2023-04-23T14:49:08.923Z,1.95
2023-04-23T14:51:35.717Z,2.33
2023-04-23T14:54:02.308Z,1.60
2023-04-23T14:56:28.848Z,3.28
2023-04-23T14:58:55.429Z,2.50
2023-04-23T15:01:21.981Z,2.90
2023-04-23T15:03:48.699Z,2.65
2023-04-23T15:06:15.571Z,4.45
2023-04-23T15:08:42.115Z,1.50
